sensor_id;sensor_type;location;lat;lon;timestamp;temperature;humidity
52947;DHT22;68773;40.400;17.260;2023-05-31T00:02:06;21.00;99.90
52947;DHT22;68773;40.400;17.260;2023-05-31T00:04:32;21.00;99.90
52947;DHT22;68773;40.400;17.260;2023-05-31T00:06:57;21.00;99.90
52947;DHT22;68773;40.400;17.260;2023-05-31T00:09:23;21.00;99.90
52947;DHT22;68773;40.400;17.260;2023-05-31T00:11:49;20.70;99.90
52947;DHT22;68773;40.400;17.260;2023-05-31T00:14:15;20.90;99.90
52947;DHT22;68773;40.400;17.260;2023-05-31T00:16:41;21.10;99.90
52947;DHT22;68773;40.400;17.260;2023-05-31T00:19:06;20.90;99.90
52947;DHT22;68773;40.400;17.260;2023-05-31T00:21:32;21.10;99.90
52947;DHT22;68773;40.400;17.260;2023-05-31T00:23:58;20.90;99.90
52947;DHT22;68773;40.400;17.260;2023-05-31T00:26:23;21.20;99.90
52947;DHT22;68773;40.400;17.260;2023-05-31T00:28:50;21.00;99.90
52947;DHT22;68773;40.400;17.260;2023-05-31T00:31:16;20.80;99.90
52947;DHT22;68773;40.400;17.260;2023-05-31T00:33:44;21.00;99.90
52947;DHT22;68773;40.400;17.260;2023-05-31T00:36:09;21.00;99.90
52947;DHT22;68773;40.400;17.260;2023-05-31T00:38:35;21.10;99.90
52947;DHT22;68773;40.400;17.260;2023-05-31T00:41:01;20.90;99.90
52947;DHT22;68773;40.400;17.260;2023-05-31T00:43:26;20.90;99.90
52947;DHT22;68773;40.400;17.260;2023-05-31T00:45:52;20.80;99.90
52947;DHT22;68773;40.400;17.260;2023-05-31T00:48:18;21.10;99.90
52947;DHT22;68773;40.400;17.260;2023-05-31T00:50:44;20.90;99.90
52947;DHT22;68773;40.400;17.260;2023-05-31T00:53:10;20.90;99.90
52947;DHT22;68773;40.400;17.260;2023-05-31T00:55:37;20.90;99.90
52947;DHT22;68773;40.400;17.260;2023-05-31T00:58:03;21.10;99.90
52947;DHT22;68773;40.400;17.260;2023-05-31T01:00:29;20.80;99.90
52947;DHT22;68773;40.400;17.260;2023-05-31T01:02:56;20.90;99.90
52947;DHT22;68773;40.400;17.260;2023-05-31T01:05:21;20.80;99.90
52947;DHT22;68773;40.400;17.260;2023-05-31T01:07:47;20.80;99.90
52947;DHT22;68773;40.400;17.260;2023-05-31T01:10:14;20.90;99.90
52947;DHT22;68773;40.400;17.260;2023-05-31T01:15:32;20.80;99.90
52947;DHT22;68773;40.400;17.260;2023-05-31T01:18:16;20.40;99.90
52947;DHT22;68773;40.400;17.260;2023-05-31T01:20:51;20.50;99.90
52947;DHT22;68773;40.400;17.260;2023-05-31T01:26:44;20.60;99.90
52947;DHT22;68773;40.400;17.260;2023-05-31T01:29:17;20.70;99.90
52947;DHT22;68773;40.400;17.260;2023-05-31T01:31:45;20.70;99.90
52947;DHT22;68773;40.400;17.260;2023-05-31T01:34:11;20.40;99.90
52947;DHT22;68773;40.400;17.260;2023-05-31T01:36:38;20.30;99.90
52947;DHT22;68773;40.400;17.260;2023-05-31T01:39:04;20.50;99.90
52947;DHT22;68773;40.400;17.260;2023-05-31T01:41:33;20.30;99.90
52947;DHT22;68773;40.400;17.260;2023-05-31T01:45:04;20.20;99.90
52947;DHT22;68773;40.400;17.260;2023-05-31T01:47:30;20.30;99.90
52947;DHT22;68773;40.400;17.260;2023-05-31T01:49:58;20.10;99.90
52947;DHT22;68773;40.400;17.260;2023-05-31T01:52:24;19.90;99.90
52947;DHT22;68773;40.400;17.260;2023-05-31T01:54:51;20.00;99.90
52947;DHT22;68773;40.400;17.260;2023-05-31T01:57:17;19.60;99.90
52947;DHT22;68773;40.400;17.260;2023-05-31T01:59:43;19.60;99.90
52947;DHT22;68773;40.400;17.260;2023-05-31T02:02:10;19.30;99.90
52947;DHT22;68773;40.400;17.260;2023-05-31T02:04:36;19.30;99.90
52947;DHT22;68773;40.400;17.260;2023-05-31T02:07:01;19.40;99.90
52947;DHT22;68773;40.400;17.260;2023-05-31T02:09:27;19.30;99.90
52947;DHT22;68773;40.400;17.260;2023-05-31T02:11:53;19.30;99.90
52947;DHT22;68773;40.400;17.260;2023-05-31T02:14:19;19.30;99.90
52947;DHT22;68773;40.400;17.260;2023-05-31T02:16:44;19.00;99.90
52947;DHT22;68773;40.400;17.260;2023-05-31T02:19:10;19.30;99.90
52947;DHT22;68773;40.400;17.260;2023-05-31T02:21:39;19.10;99.90
52947;DHT22;68773;40.400;17.260;2023-05-31T02:24:05;19.30;99.90
52947;DHT22;68773;40.400;17.260;2023-05-31T02:26:31;19.10;99.90
52947;DHT22;68773;40.400;17.260;2023-05-31T02:28:57;19.30;99.90
52947;DHT22;68773;40.400;17.260;2023-05-31T02:31:22;19.00;99.90
52947;DHT22;68773;40.400;17.260;2023-05-31T02:33:48;19.00;99.90
52947;DHT22;68773;40.400;17.260;2023-05-31T02:36:14;18.90;99.90
52947;DHT22;68773;40.400;17.260;2023-05-31T02:38:39;18.90;99.90
52947;DHT22;68773;40.400;17.260;2023-05-31T02:41:05;19.00;99.90
52947;DHT22;68773;40.400;17.260;2023-05-31T02:43:31;18.80;99.90
52947;DHT22;68773;40.400;17.260;2023-05-31T02:45:57;18.70;99.90
52947;DHT22;68773;40.400;17.260;2023-05-31T02:48:27;19.00;99.90
52947;DHT22;68773;40.400;17.260;2023-05-31T02:50:53;18.90;99.90
52947;DHT22;68773;40.400;17.260;2023-05-31T02:53:19;18.80;99.90
52947;DHT22;68773;40.400;17.260;2023-05-31T02:55:45;18.80;99.90
52947;DHT22;68773;40.400;17.260;2023-05-31T02:58:10;18.90;99.90
52947;DHT22;68773;40.400;17.260;2023-05-31T03:00:37;18.90;99.90
52947;DHT22;68773;40.400;17.260;2023-05-31T03:03:03;19.10;99.90
52947;DHT22;68773;40.400;17.260;2023-05-31T03:05:28;18.80;99.90
52947;DHT22;68773;40.400;17.260;2023-05-31T03:07:55;18.80;99.90
52947;DHT22;68773;40.400;17.260;2023-05-31T03:10:20;18.70;99.90
52947;DHT22;68773;40.400;17.260;2023-05-31T03:12:46;18.60;99.90
52947;DHT22;68773;40.400;17.260;2023-05-31T03:15:12;18.70;99.90
52947;DHT22;68773;40.400;17.260;2023-05-31T03:17:38;18.80;99.90
52947;DHT22;68773;40.400;17.260;2023-05-31T03:20:05;18.60;99.90
52947;DHT22;68773;40.400;17.260;2023-05-31T03:22:34;18.40;99.90
52947;DHT22;68773;40.400;17.260;2023-05-31T03:25:01;18.60;99.90
52947;DHT22;68773;40.400;17.260;2023-05-31T03:27:27;18.40;99.90
52947;DHT22;68773;40.400;17.260;2023-05-31T03:29:53;18.60;99.90
52947;DHT22;68773;40.400;17.260;2023-05-31T03:32:19;18.60;99.90
52947;DHT22;68773;40.400;17.260;2023-05-31T03:34:44;18.50;99.90
52947;DHT22;68773;40.400;17.260;2023-05-31T03:37:10;18.50;99.90
52947;DHT22;68773;40.400;17.260;2023-05-31T03:39:36;18.50;99.90
52947;DHT22;68773;40.400;17.260;2023-05-31T03:42:02;18.40;99.90
52947;DHT22;68773;40.400;17.260;2023-05-31T03:44:27;18.40;99.90
52947;DHT22;68773;40.400;17.260;2023-05-31T03:46:53;18.40;99.90
52947;DHT22;68773;40.400;17.260;2023-05-31T03:49:19;18.60;99.90
52947;DHT22;68773;40.400;17.260;2023-05-31T03:51:45;18.40;99.90
52947;DHT22;68773;40.400;17.260;2023-05-31T03:54:11;18.70;99.90
52947;DHT22;68773;40.400;17.260;2023-05-31T03:56:36;18.60;99.90
52947;DHT22;68773;40.400;17.260;2023-05-31T03:59:02;18.60;99.90
52947;DHT22;68773;40.400;17.260;2023-05-31T04:01:28;18.80;99.90
52947;DHT22;68773;40.400;17.260;2023-05-31T04:03:54;18.60;99.90
52947;DHT22;68773;40.400;17.260;2023-05-31T04:06:20;18.80;99.90
52947;DHT22;68773;40.400;17.260;2023-05-31T04:08:46;18.80;99.90
52947;DHT22;68773;40.400;17.260;2023-05-31T04:11:12;18.80;99.90
52947;DHT22;68773;40.400;17.260;2023-05-31T04:13:38;18.60;99.90
52947;DHT22;68773;40.400;17.260;2023-05-31T04:16:03;18.80;99.90
52947;DHT22;68773;40.400;17.260;2023-05-31T04:18:30;18.80;99.90
52947;DHT22;68773;40.400;17.260;2023-05-31T04:20:55;18.60;99.90
52947;DHT22;68773;40.400;17.260;2023-05-31T04:23:21;18.70;99.90
52947;DHT22;68773;40.400;17.260;2023-05-31T04:25:47;18.80;99.90
52947;DHT22;68773;40.400;17.260;2023-05-31T04:28:13;18.80;99.90
52947;DHT22;68773;40.400;17.260;2023-05-31T04:30:40;18.70;99.90
52947;DHT22;68773;40.400;17.260;2023-05-31T04:33:07;18.60;99.90
52947;DHT22;68773;40.400;17.260;2023-05-31T04:35:32;18.70;99.90
52947;DHT22;68773;40.400;17.260;2023-05-31T04:37:59;18.70;99.90
52947;DHT22;68773;40.400;17.260;2023-05-31T04:40:28;18.90;99.90
52947;DHT22;68773;40.400;17.260;2023-05-31T04:42:58;18.80;99.90
52947;DHT22;68773;40.400;17.260;2023-05-31T04:45:26;18.80;99.90
52947;DHT22;68773;40.400;17.260;2023-05-31T04:47:52;18.90;99.90
52947;DHT22;68773;40.400;17.260;2023-05-31T04:50:18;18.70;99.90
52947;DHT22;68773;40.400;17.260;2023-05-31T04:52:44;18.80;99.90
52947;DHT22;68773;40.400;17.260;2023-05-31T04:55:10;19.00;99.90
52947;DHT22;68773;40.400;17.260;2023-05-31T04:57:37;18.80;99.90
52947;DHT22;68773;40.400;17.260;2023-05-31T05:00:04;18.80;99.90
52947;DHT22;68773;40.400;17.260;2023-05-31T05:02:37;18.90;99.90
52947;DHT22;68773;40.400;17.260;2023-05-31T05:05:02;19.00;99.90
52947;DHT22;68773;40.400;17.260;2023-05-31T05:07:30;19.00;99.90
52947;DHT22;68773;40.400;17.260;2023-05-31T05:09:55;19.10;99.90
52947;DHT22;68773;40.400;17.260;2023-05-31T05:12:21;19.20;99.90
52947;DHT22;68773;40.400;17.260;2023-05-31T05:14:47;19.20;99.90
52947;DHT22;68773;40.400;17.260;2023-05-31T05:17:47;19.10;99.90
52947;DHT22;68773;40.400;17.260;2023-05-31T05:20:13;19.20;99.90
52947;DHT22;68773;40.400;17.260;2023-05-31T05:22:38;19.10;99.90
52947;DHT22;68773;40.400;17.260;2023-05-31T05:25:05;19.40;99.90
52947;DHT22;68773;40.400;17.260;2023-05-31T05:27:30;19.20;99.90
52947;DHT22;68773;40.400;17.260;2023-05-31T05:29:56;19.50;99.90
52947;DHT22;68773;40.400;17.260;2023-05-31T05:32:22;19.50;99.90
52947;DHT22;68773;40.400;17.260;2023-05-31T05:34:48;19.50;99.90
52947;DHT22;68773;40.400;17.260;2023-05-31T05:37:13;19.80;99.90
52947;DHT22;68773;40.400;17.260;2023-05-31T05:39:39;19.70;99.90
52947;DHT22;68773;40.400;17.260;2023-05-31T05:42:05;19.90;99.90
52947;DHT22;68773;40.400;17.260;2023-05-31T05:44:31;19.90;99.90
52947;DHT22;68773;40.400;17.260;2023-05-31T05:46:57;20.00;99.90
52947;DHT22;68773;40.400;17.260;2023-05-31T05:49:23;19.90;99.90
52947;DHT22;68773;40.400;17.260;2023-05-31T05:51:49;20.00;99.90
52947;DHT22;68773;40.400;17.260;2023-05-31T05:54:14;20.00;99.90
52947;DHT22;68773;40.400;17.260;2023-05-31T05:56:40;20.20;99.90
52947;DHT22;68773;40.400;17.260;2023-05-31T05:59:06;20.20;99.90
52947;DHT22;68773;40.400;17.260;2023-05-31T06:01:32;20.20;99.90
52947;DHT22;68773;40.400;17.260;2023-05-31T06:03:57;20.50;99.90
52947;DHT22;68773;40.400;17.260;2023-05-31T06:06:23;20.40;99.90
52947;DHT22;68773;40.400;17.260;2023-05-31T06:08:49;20.50;99.90
52947;DHT22;68773;40.400;17.260;2023-05-31T06:11:15;20.50;99.90
52947;DHT22;68773;40.400;17.260;2023-05-31T06:13:44;20.70;99.90
52947;DHT22;68773;40.400;17.260;2023-05-31T06:16:10;21.00;99.90
52947;DHT22;68773;40.400;17.260;2023-05-31T13:51:21;28.00;87.20
52947;DHT22;68773;40.400;17.260;2023-05-31T13:53:47;27.90;87.10
52947;DHT22;68773;40.400;17.260;2023-05-31T13:56:13;27.60;87.60
52947;DHT22;68773;40.400;17.260;2023-05-31T13:58:39;27.50;87.90
52947;DHT22;68773;40.400;17.260;2023-05-31T14:01:05;27.40;87.70
52947;DHT22;68773;40.400;17.260;2023-05-31T14:03:37;27.40;88.70
52947;DHT22;68773;40.400;17.260;2023-05-31T14:06:03;27.60;88.60
52947;DHT22;68773;40.400;17.260;2023-05-31T14:08:29;27.80;88.10
52947;DHT22;68773;40.400;17.260;2023-05-31T14:10:56;27.60;87.10
52947;DHT22;68773;40.400;17.260;2023-05-31T14:13:22;27.70;86.60
52947;DHT22;68773;40.400;17.260;2023-05-31T14:15:48;27.90;86.30
52947;DHT22;68773;40.400;17.260;2023-05-31T14:18:14;27.60;86.80
52947;DHT22;68773;40.400;17.260;2023-05-31T14:20:40;27.60;87.00
52947;DHT22;68773;40.400;17.260;2023-05-31T14:23:07;28.10;86.00
52947;DHT22;68773;40.400;17.260;2023-05-31T14:25:32;28.30;84.80
52947;DHT22;68773;40.400;17.260;2023-05-31T14:27:58;28.00;85.30
52947;DHT22;68773;40.400;17.260;2023-05-31T14:30:25;28.50;85.10
52947;DHT22;68773;40.400;17.260;2023-05-31T14:32:52;28.70;84.00
52947;DHT22;68773;40.400;17.260;2023-05-31T14:35:19;28.50;83.60
52947;DHT22;68773;40.400;17.260;2023-05-31T14:37:46;28.30;84.40
52947;DHT22;68773;40.400;17.260;2023-05-31T14:40:12;28.30;84.70
52947;DHT22;68773;40.400;17.260;2023-05-31T14:42:37;28.30;84.60
52947;DHT22;68773;40.400;17.260;2023-05-31T14:45:03;28.40;84.00
52947;DHT22;68773;40.400;17.260;2023-05-31T14:47:30;27.90;83.50
52947;DHT22;68773;40.400;17.260;2023-05-31T14:49:58;28.20;83.00
52947;DHT22;68773;40.400;17.260;2023-05-31T14:52:24;28.10;84.40
52947;DHT22;68773;40.400;17.260;2023-05-31T14:58:12;27.80;84.20
52947;DHT22;68773;40.400;17.260;2023-05-31T15:04:00;27.40;87.70
52947;DHT22;68773;40.400;17.260;2023-05-31T15:09:49;27.10;91.50
52947;DHT22;68773;40.400;17.260;2023-05-31T15:15:37;27.50;93.00
52947;DHT22;68773;40.400;17.260;2023-05-31T15:18:03;28.00;93.40
52947;DHT22;68773;40.400;17.260;2023-05-31T15:20:30;28.00;93.00
52947;DHT22;68773;40.400;17.260;2023-05-31T15:22:55;28.20;92.50
52947;DHT22;68773;40.400;17.260;2023-05-31T15:25:21;28.40;92.50
52947;DHT22;68773;40.400;17.260;2023-05-31T15:31:09;28.40;92.10
52947;DHT22;68773;40.400;17.260;2023-05-31T15:36:56;28.50;92.30
52947;DHT22;68773;40.400;17.260;2023-05-31T15:42:44;28.50;91.80
52947;DHT22;68773;40.400;17.260;2023-05-31T15:45:10;28.70;91.60
